createdAt,value
2022-08-14T00:00:05.938Z,98763.66
2022-08-14T00:02:34.404Z,98762.84
2022-08-14T00:05:07.380Z,98757.59
2022-08-14T00:07:41.936Z,98760.78
2022-08-14T00:10:49.845Z,98759.53
2022-08-14T00:13:06.996Z,98762.72
2022-08-14T00:15:44.343Z,98760.66
2022-08-14T00:18:30.810Z,98759.38
2022-08-14T00:21:10.871Z,98761.75
2022-08-14T00:23:43.213Z,98762.09
2022-08-14T00:26:21.719Z,98760.88
2022-08-14T00:28:51.857Z,98748.00
2022-08-14T00:31:32.966Z,98753.19
2022-08-14T00:34:36.448Z,98752.38
2022-08-14T00:36:59.315Z,98755.19
2022-08-14T00:39:29.239Z,98750.38
2022-08-14T00:41:58.676Z,98750.44
2022-08-14T00:44:32.658Z,98748.06
2022-08-14T00:47:03.563Z,98738.91
2022-08-14T00:49:38.155Z,98745.41
2022-08-14T00:52:13.846Z,98748.31
2022-08-14T00:54:45.278Z,98748.00
2022-08-14T00:57:14.173Z,98748.19
2022-08-14T00:59:42.611Z,98746.69
2022-08-14T01:02:11.796Z,98752.44
2022-08-14T01:04:54.462Z,98749.34
2022-08-14T01:07:27.135Z,98748.22
2022-08-14T01:10:01.371Z,98750.25
2022-08-14T01:12:31.070Z,98744.34
2022-08-14T01:15:02.145Z,98748.03
2022-08-14T01:17:49.995Z,98748.09
2022-08-14T01:20:40.002Z,98755.78
2022-08-14T01:23:16.446Z,98749.34
2022-08-14T01:25:51.386Z,98744.97
2022-08-14T01:28:34.519Z,98746.22
2022-08-14T01:31:15.350Z,98748.66
2022-08-14T01:34:00.472Z,98745.47
2022-08-14T01:36:39.436Z,98748.72
2022-08-14T01:39:14.028Z,98747.09
2022-08-14T01:41:44.561Z,98745.09
2022-08-14T01:44:32.800Z,98741.47
2022-08-14T01:47:16.481Z,98735.03
2022-08-14T01:49:59.566Z,98733.88
2022-08-14T01:53:00.128Z,98729.81
2022-08-14T01:55:32.558Z,98739.78
2022-08-14T01:58:19.456Z,98730.53
2022-08-14T02:00:55.013Z,98739.72
2022-08-14T02:03:30.267Z,98726.47
2022-08-14T02:06:04.153Z,98727.31
2022-08-14T02:08:52.617Z,98726.88
2022-08-14T02:11:26.851Z,98731.28
2022-08-14T02:14:07.178Z,98724.50
2022-08-14T02:16:40.489Z,98726.47
2022-08-14T02:19:13.590Z,98723.66
2022-08-14T02:21:48.840Z,98728.47
2022-08-14T02:24:39.670Z,98725.22
2022-08-14T02:28:22.507Z,98719.19
2022-08-14T02:30:02.534Z,98718.00
2022-08-14T02:32:36.230Z,98718.81
2022-08-14T02:35:13.874Z,98717.19
2022-08-14T02:37:48.323Z,98720.81
2022-08-14T02:40:18.606Z,98721.16
2022-08-14T02:42:55.040Z,98720.75
2022-08-14T02:45:44.205Z,98715.13
2022-08-14T02:49:03.761Z,98735.16
2022-08-14T02:51:08.966Z,98730.28
2022-08-14T02:53:42.344Z,98729.50
2022-08-14T02:56:30.304Z,98741.09
2022-08-14T02:59:05.819Z,98735.47
2022-08-14T03:01:43.518Z,98730.69
2022-08-14T03:04:13.583Z,98737.16
2022-08-14T03:06:57.078Z,98729.13
2022-08-14T03:10:25.274Z,98723.88
2022-08-14T03:12:17.955Z,98731.84
2022-08-14T03:15:13.843Z,98727.44
2022-08-14T03:17:57.074Z,98723.81
2022-08-14T03:20:29.003Z,98726.59
2022-08-14T03:23:03.165Z,98733.06
2022-08-14T03:25:33.504Z,98735.84
2022-08-14T03:28:07.187Z,98729.84
2022-08-14T03:30:39.981Z,98733.47
2022-08-14T03:33:13.097Z,98730.28
2022-08-14T03:36:05.601Z,98725.50
2022-08-14T03:39:14.408Z,98722.28
2022-08-14T03:41:23.627Z,98733.19
2022-08-14T03:43:57.484Z,98725.91
2022-08-14T03:46:54.391Z,98723.94
2022-08-14T03:49:28.433Z,98726.31
2022-08-14T03:52:01.188Z,98724.66
2022-08-14T03:54:30.215Z,98722.28
2022-08-14T03:57:02.911Z,98717.50
2022-08-14T03:59:32.351Z,98717.94
2022-08-14T04:02:04.825Z,98724.38
2022-08-14T04:04:53.522Z,98726.00
2022-08-14T04:07:22.731Z,98724.78
2022-08-14T04:09:52.717Z,98726.06
2022-08-14T04:12:26.431Z,98724.50
2022-08-14T04:14:55.679Z,98718.50
2022-08-14T04:17:26.370Z,98714.50
2022-08-14T04:19:55.488Z,98724.56
2022-08-14T04:22:25.271Z,98721.75
2022-08-14T04:24:53.960Z,98715.31
2022-08-14T04:27:23.332Z,98717.31
2022-08-14T04:29:51.748Z,98715.31
2022-08-14T04:32:57.751Z,98713.34
2022-08-14T04:35:12.966Z,98703.25
2022-08-14T04:38:37.048Z,98704.91
2022-08-14T04:41:15.840Z,98702.00
2022-08-14T04:43:44.230Z,98709.19
2022-08-14T04:46:56.378Z,98709.19
2022-08-14T04:49:08.077Z,98712.44
2022-08-14T04:51:46.756Z,98707.25
2022-08-14T04:54:26.989Z,98708.94
2022-08-14T04:56:56.513Z,98703.78
2022-08-14T04:59:25.509Z,98708.63
2022-08-14T05:01:57.289Z,98699.44
2022-08-14T05:04:26.255Z,98704.31
2022-08-14T05:06:56.273Z,98701.97
2022-08-14T05:09:29.161Z,98695.97
2022-08-14T05:12:23.925Z,98702.09
2022-08-14T05:14:54.643Z,98695.69
2022-08-14T05:17:32.148Z,98695.78
2022-08-14T05:21:04.170Z,98687.38
2022-08-14T05:23:03.668Z,98691.88
2022-08-14T05:25:33.728Z,98682.69
2022-08-14T05:28:12.328Z,98682.69
2022-08-14T05:30:44.518Z,98680.72
2022-08-14T05:33:14.106Z,98674.78
2022-08-14T05:35:44.314Z,98669.59
2022-08-14T05:38:30.593Z,98669.22
2022-08-14T05:41:00.293Z,98674.06
2022-08-14T05:43:40.659Z,98674.56
2022-08-14T05:46:12.240Z,98667.41
2022-08-14T05:48:44.226Z,98673.13
2022-08-14T05:51:14.155Z,98673.25
2022-08-14T05:54:00.100Z,98671.78
2022-08-14T05:56:30.942Z,98668.75
2022-08-14T05:59:00.877Z,98673.72
2022-08-14T06:01:31.813Z,98672.66
2022-08-14T06:04:00.678Z,98676.47
2022-08-14T06:06:31.659Z,98674.16
2022-08-14T06:09:03.600Z,98672.59
2022-08-14T06:11:32.009Z,98678.69
2022-08-14T06:14:00.806Z,98678.72
2022-08-14T06:16:31.977Z,98672.31
2022-08-14T06:19:01.502Z,98669.91
2022-08-14T06:21:29.909Z,98671.56
2022-08-14T06:24:02.655Z,98677.56
2022-08-14T06:26:31.259Z,98669.09
2022-08-14T06:28:59.996Z,98667.88
2022-08-14T06:31:28.492Z,98671.91
2022-08-14T06:35:04.643Z,98670.69
2022-08-14T06:36:45.412Z,98672.31
2022-08-14T06:39:17.294Z,98669.91
2022-08-14T06:41:58.452Z,98674.31
2022-08-14T06:44:32.507Z,98683.94
2022-08-14T06:47:02.817Z,98677.06
2022-08-14T06:49:40.251Z,98674.66
2022-08-14T06:52:15.322Z,98675.03
2022-08-14T06:54:46.952Z,98678.63
2022-08-14T06:57:15.321Z,98675.41
2022-08-14T06:59:43.781Z,98671.34
2022-08-14T07:02:29.818Z,98666.09
2022-08-14T07:05:20.990Z,98668.47
2022-08-14T07:07:52.670Z,98667.72
2022-08-14T07:10:25.435Z,98671.38
2022-08-14T07:13:01.551Z,98669.78
2022-08-14T07:15:39.659Z,98673.47
2022-08-14T07:18:10.332Z,98672.31
2022-08-14T07:20:40.241Z,98675.13
2022-08-14T07:23:20.965Z,98674.81
2022-08-14T07:25:58.333Z,98672.47
2022-08-14T07:28:31.490Z,98683.06
2022-08-14T07:31:04.942Z,98673.50
2022-08-14T07:33:42.049Z,98678.78
2022-08-14T07:36:26.957Z,98675.66
2022-08-14T07:38:59.719Z,98679.72
2022-08-14T07:41:34.215Z,98669.31
2022-08-14T07:44:22.627Z,98672.16
2022-08-14T07:46:53.885Z,98672.19
2022-08-14T07:49:24.308Z,98671.41
2022-08-14T07:51:52.898Z,98664.59
2022-08-14T07:54:23.458Z,98671.47
2022-08-14T07:57:11.818Z,98675.09
2022-08-14T07:59:43.553Z,98676.72
2022-08-14T08:02:18.077Z,98674.34
2022-08-14T08:04:54.234Z,98671.50
2022-08-14T08:07:24.094Z,98663.47
2022-08-14T08:09:59.598Z,98672.31
2022-08-14T08:12:32.458Z,98669.94
2022-08-14T08:15:07.153Z,98673.16
2022-08-14T08:17:38.752Z,98661.09
2022-08-14T08:20:12.076Z,98654.28
2022-08-14T08:22:43.415Z,98653.47
2022-08-14T08:25:17.785Z,98659.56
2022-08-14T08:27:59.677Z,98661.56
2022-08-14T08:30:29.890Z,98664.41
2022-08-14T08:33:02.978Z,98664.41
2022-08-14T08:35:46.859Z,98667.28
2022-08-14T08:39:14.738Z,98657.56
2022-08-14T08:41:11.786Z,98661.69
2022-08-14T08:43:46.254Z,98655.63
2022-08-14T08:46:23.914Z,98652.03
2022-08-14T08:51:33.550Z,98662.16
2022-08-14T08:54:06.007Z,98655.72
2022-08-14T08:56:40.513Z,98664.25
2022-08-14T08:59:31.052Z,98652.94
2022-08-14T09:02:04.182Z,98651.75
2022-08-14T09:04:45.191Z,98651.72
2022-08-14T09:07:27.273Z,98649.28
2022-08-14T09:09:59.904Z,98644.88
2022-08-14T09:12:32.642Z,98646.84
2022-08-14T09:15:11.647Z,98648.44
2022-08-14T09:17:42.203Z,98651.22
2022-08-14T09:20:12.947Z,98646.78
2022-08-14T09:22:47.530Z,98647.53
2022-08-14T09:25:19.519Z,98649.91
2022-08-14T09:27:48.183Z,98647.88
2022-08-14T09:30:30.835Z,98651.16
2022-08-14T09:33:56.585Z,98659.25
2022-08-14T09:37:03.938Z,98647.88
2022-08-14T09:39:48.381Z,98652.28
2022-08-14T09:43:05.681Z,98648.22
2022-08-14T09:45:52.421Z,98651.00
2022-08-14T09:48:30.253Z,98639.97
2022-08-14T09:54:18.978Z,98640.22
2022-08-14T09:56:43.972Z,98634.47
2022-08-14T09:59:16.140Z,98634.78
2022-08-14T10:01:52.695Z,98630.31
2022-08-14T10:04:36.535Z,98627.41
2022-08-14T10:07:08.456Z,98620.88
2022-08-14T10:09:57.571Z,98621.69
2022-08-14T10:12:42.390Z,98615.13
2022-08-14T10:15:22.008Z,98615.09
2022-08-14T10:18:09.621Z,98607.78
2022-08-14T10:20:57.754Z,98613.34
2022-08-14T10:23:34.000Z,98600.22
2022-08-14T10:26:08.778Z,98602.13
2022-08-14T10:29:17.697Z,98591.09
2022-08-14T10:31:44.680Z,98599.47
2022-08-14T10:34:29.249Z,98592.22
2022-08-14T10:37:14.529Z,98594.28
2022-08-14T10:40:01.929Z,98600.81
2022-08-14T10:42:38.462Z,98598.00
2022-08-14T10:45:21.745Z,98607.03
2022-08-14T10:48:09.497Z,98605.53
2022-08-14T10:50:50.492Z,98604.44
2022-08-14T10:53:31.116Z,98606.94
2022-08-14T10:56:06.930Z,98604.09
2022-08-14T10:58:50.617Z,98598.75
2022-08-14T11:01:40.871Z,98592.59
2022-08-14T11:04:30.128Z,98602.16
2022-08-14T11:07:00.732Z,98589.47
2022-08-14T11:09:31.480Z,98591.41
2022-08-14T11:12:39.949Z,98595.38
2022-08-14T11:14:59.345Z,98586.47
2022-08-14T11:17:32.505Z,98584.00
2022-08-14T11:20:03.745Z,98576.28
2022-08-14T11:22:52.605Z,98572.56
2022-08-14T11:25:41.270Z,98573.56
2022-08-14T11:28:18.833Z,98571.28
2022-08-14T11:30:54.248Z,98573.94
2022-08-14T11:33:31.085Z,98574.16
2022-08-14T11:36:02.004Z,98571.50
2022-08-14T11:38:38.505Z,98570.56
2022-08-14T11:41:07.869Z,98569.59
2022-08-14T11:43:41.908Z,98568.78
2022-08-14T11:46:17.923Z,98573.66
2022-08-14T11:49:03.665Z,98564.06
2022-08-14T11:51:36.139Z,98558.84
2022-08-14T11:54:20.762Z,98563.38
2022-08-14T11:57:04.659Z,98562.94
2022-08-14T11:59:34.237Z,98561.53
2022-08-14T12:03:10.963Z,98567.22
2022-08-14T12:05:00.642Z,98556.22
2022-08-14T12:07:33.401Z,98559.50
2022-08-14T12:10:26.605Z,98567.13
2022-08-14T12:12:54.949Z,98566.88
2022-08-14T12:15:32.838Z,98565.34
2022-08-14T12:18:02.158Z,98556.22
2022-08-14T12:20:36.733Z,98555.28
2022-08-14T12:23:07.318Z,98557.06
2022-08-14T12:25:37.349Z,98559.59
2022-08-14T12:28:27.391Z,98552.84
2022-08-14T12:31:13.555Z,98555.38
2022-08-14T12:33:47.190Z,98554.00
2022-08-14T12:36:23.818Z,98541.63
2022-08-14T12:38:55.503Z,98541.38
2022-08-14T12:41:34.281Z,98520.47
2022-08-14T12:44:08.564Z,98519.09
2022-08-14T12:46:43.490Z,98512.22
2022-08-14T12:49:17.841Z,98514.53
2022-08-14T12:51:58.170Z,98517.09
2022-08-14T12:54:29.334Z,98528.56
2022-08-14T12:57:19.490Z,98521.69
2022-08-14T12:59:49.764Z,98522.13
2022-08-14T13:02:25.962Z,98519.72
2022-08-14T13:04:56.538Z,98511.47
2022-08-14T13:07:32.879Z,98516.44
2022-08-14T13:10:34.335Z,98502.72
2022-08-14T13:13:13.068Z,98509.28
2022-08-14T13:15:45.412Z,98496.31
2022-08-14T13:18:16.872Z,98493.72
2022-08-14T13:20:48.107Z,98494.16
2022-08-14T13:23:30.713Z,98488.28
2022-08-14T13:26:01.638Z,98487.22
2022-08-14T13:28:41.300Z,98481.72
2022-08-14T13:31:30.113Z,98463.91
2022-08-14T13:34:00.238Z,98450.00
2022-08-14T13:36:51.916Z,98457.88
2022-08-14T13:39:19.673Z,98460.47
2022-08-14T13:41:55.527Z,98449.72
2022-08-14T13:44:28.781Z,98456.59
2022-08-14T13:46:58.653Z,98450.78
2022-08-14T13:49:28.994Z,98442.34
2022-08-14T13:52:04.330Z,98441.44
2022-08-14T13:54:55.697Z,98440.06
2022-08-14T13:57:30.506Z,98426.25
2022-08-14T14:00:10.679Z,98437.72
2022-08-14T14:02:43.420Z,98428.63
2022-08-14T14:05:18.800Z,98423.75
2022-08-14T14:07:52.987Z,98412.03
2022-08-14T14:10:28.544Z,98407.97
2022-08-14T14:12:57.563Z,98397.81
2022-08-14T14:15:48.496Z,98401.50
2022-08-14T14:18:34.633Z,98399.72
2022-08-14T14:21:06.551Z,98391.78
2022-08-14T14:23:38.311Z,98402.34
2022-08-14T14:26:08.123Z,98394.88
2022-08-14T14:28:45.210Z,98392.75
2022-08-14T14:31:16.405Z,98398.00
2022-08-14T14:33:48.871Z,98397.78
2022-08-14T14:36:22.676Z,98396.81
2022-08-14T14:38:56.102Z,98390.91
2022-08-14T14:41:38.058Z,98392.63
2022-08-14T14:44:15.812Z,98389.72
2022-08-14T14:46:51.129Z,98384.28
2022-08-14T14:49:31.807Z,98377.97
2022-08-14T14:52:23.423Z,98377.34
2022-08-14T14:54:58.574Z,98373.59
2022-08-14T14:57:34.915Z,98374.13
2022-08-14T15:00:13.051Z,98375.78
2022-08-14T15:02:45.606Z,98376.38
2022-08-14T15:05:17.520Z,98380.34
2022-08-14T15:07:51.417Z,98375.94
2022-08-14T15:10:28.009Z,98382.03
2022-08-14T15:13:04.222Z,98371.88
2022-08-14T15:15:36.869Z,98377.03
2022-08-14T15:18:14.965Z,98379.63
2022-08-14T15:21:02.734Z,98377.91
2022-08-14T15:23:44.298Z,98379.72
2022-08-14T15:26:24.125Z,98377.75
2022-08-14T15:29:05.856Z,98368.63
2022-08-14T15:31:37.462Z,98374.94
2022-08-14T15:34:40.980Z,98382.09
2022-08-14T15:37:02.266Z,98382.44
2022-08-14T15:39:35.909Z,98385.03
2022-08-14T15:42:14.435Z,98388.47
2022-08-14T15:44:58.095Z,98381.31
2022-08-14T15:47:33.340Z,98378.91
2022-08-14T15:50:10.015Z,98382.09
2022-08-14T15:52:39.199Z,98372.66
2022-08-14T15:55:14.760Z,98371.75
2022-08-14T15:58:01.358Z,98373.94
2022-08-14T16:00:51.894Z,98363.19
2022-08-14T16:03:27.414Z,98359.47
2022-08-14T16:06:11.059Z,98361.41
2022-08-14T16:08:46.663Z,98357.91
2022-08-14T16:11:20.426Z,98355.50
2022-08-14T16:13:50.328Z,98363.19
2022-08-14T16:16:47.243Z,98351.00
2022-08-14T16:19:14.193Z,98352.09
2022-08-14T16:22:01.659Z,98353.94
2022-08-14T16:24:59.842Z,98361.53
2022-08-14T16:27:37.179Z,98356.91
2022-08-14T16:30:24.849Z,98360.00
2022-08-14T16:32:56.802Z,98352.16
2022-08-14T16:35:42.508Z,98348.78
2022-08-14T16:38:46.138Z,98359.16
2022-08-14T16:41:23.069Z,98352.41
2022-08-14T16:43:58.862Z,98352.16
2022-08-14T16:46:32.667Z,98344.19
2022-08-14T16:49:02.525Z,98341.09
2022-08-14T16:51:36.516Z,98339.19
2022-08-14T16:54:34.605Z,98337.66
2022-08-14T16:57:22.650Z,98338.16
2022-08-14T16:59:57.331Z,98339.81
2022-08-14T17:02:39.080Z,98331.84
2022-08-14T17:05:20.972Z,98336.81
2022-08-14T17:08:32.858Z,98333.75
2022-08-14T17:11:10.835Z,98330.16
2022-08-14T17:13:59.700Z,98330.22
2022-08-14T17:16:37.525Z,98325.06
2022-08-14T17:19:13.378Z,98320.28
2022-08-14T17:21:47.028Z,98322.00
2022-08-14T17:24:56.451Z,98318.81
2022-08-14T17:27:18.374Z,98316.88
2022-08-14T17:29:56.316Z,98319.41
2022-08-14T17:32:56.883Z,98311.78
2022-08-14T17:35:57.737Z,98313.09
2022-08-14T17:38:38.812Z,98311.94
2022-08-14T17:41:27.098Z,98313.69
2022-08-14T17:44:19.912Z,98317.84
2022-08-14T17:46:55.348Z,98315.44
2022-08-14T17:49:32.156Z,98309.03
2022-08-14T17:52:17.574Z,98315.56
2022-08-14T17:54:53.001Z,98312.78
2022-08-14T17:57:28.710Z,98315.66
2022-08-14T18:00:01.377Z,98307.66
2022-08-14T18:02:31.958Z,98321.00
2022-08-14T18:05:03.154Z,98311.78
2022-08-14T18:07:50.364Z,98315.06
2022-08-14T18:10:55.494Z,98314.28
2022-08-14T18:13:11.516Z,98317.59
2022-08-14T18:15:50.955Z,98320.44
2022-08-14T18:18:19.949Z,98320.03
2022-08-14T18:21:24.306Z,98326.53
2022-08-14T18:23:48.125Z,98325.38
2022-08-14T18:26:36.129Z,98331.88
2022-08-14T18:29:14.780Z,98332.31
2022-08-14T18:31:45.395Z,98335.56
2022-08-14T18:34:31.185Z,98331.56
2022-08-14T18:37:11.038Z,98342.47
2022-08-14T18:40:02.250Z,98346.53
2022-08-14T18:42:48.135Z,98347.72
2022-08-14T18:45:18.856Z,98350.97
2022-08-14T18:48:16.029Z,98360.25
2022-08-14T18:50:52.640Z,98355.44
2022-08-14T18:53:24.856Z,98353.81
2022-08-14T18:55:59.959Z,98353.44
2022-08-14T18:58:58.549Z,98361.50
2022-08-14T19:01:30.807Z,98352.63
2022-08-14T19:04:03.969Z,98355.47
2022-08-14T19:06:56.029Z,98356.28
2022-08-14T19:09:56.356Z,98355.50
2022-08-14T19:13:13.275Z,98359.53
2022-08-14T19:15:56.422Z,98360.72
2022-08-14T19:18:28.481Z,98357.09
2022-08-14T19:21:01.588Z,98363.94
2022-08-14T19:23:42.850Z,98366.38
2022-08-14T19:26:35.543Z,98363.97
2022-08-14T19:29:36.214Z,98357.50
2022-08-14T19:32:40.494Z,98360.72
2022-08-14T19:35:49.759Z,98359.94
2022-08-14T19:38:54.334Z,98357.13
2022-08-14T19:41:30.535Z,98361.13
2022-08-14T19:44:12.806Z,98362.75
2022-08-14T19:47:01.041Z,98356.72
2022-08-14T19:50:24.898Z,98358.25
2022-08-14T19:52:29.954Z,98351.41
2022-08-14T19:55:01.359Z,98350.59
2022-08-14T19:57:32.645Z,98344.97
2022-08-14T20:00:28.716Z,98346.97
2022-08-14T20:03:10.109Z,98344.94
2022-08-14T20:05:45.749Z,98344.53
2022-08-14T20:11:00.995Z,98337.28
2022-08-14T20:11:41.639Z,98330.44
2022-08-14T20:14:11.782Z,98327.59
2022-08-14T20:16:54.739Z,98328.78
2022-08-14T20:19:28.807Z,98320.34
2022-08-14T20:22:34.707Z,98329.16
2022-08-14T20:24:50.089Z,98334.81
2022-08-14T20:27:44.283Z,98322.72
2022-08-14T20:30:37.582Z,98339.56
2022-08-14T20:33:10.536Z,98339.16
2022-08-14T20:35:44.377Z,98332.31
2022-08-14T20:38:29.888Z,98337.94
2022-08-14T20:41:06.345Z,98337.13
2022-08-14T20:43:58.620Z,98335.13
2022-08-14T20:46:38.647Z,98340.34
2022-08-14T20:49:10.888Z,98341.56
2022-08-14T20:51:54.473Z,98345.59
2022-08-14T20:54:34.673Z,98342.75
2022-08-14T20:57:10.546Z,98350.00
2022-08-14T20:59:44.225Z,98346.34
2022-08-14T21:02:34.483Z,98342.72
2022-08-14T21:05:16.685Z,98349.97
2022-08-14T21:07:51.194Z,98344.72
2022-08-14T21:10:36.407Z,98345.53
2022-08-14T21:14:09.285Z,98337.03
2022-08-14T21:16:25.926Z,98334.63
2022-08-14T21:19:00.100Z,98336.63
2022-08-14T21:21:40.867Z,98334.59
2022-08-14T21:24:40.078Z,98332.97
2022-08-14T21:27:20.491Z,98331.34
2022-08-14T21:29:55.625Z,98331.72
2022-08-14T21:32:47.077Z,98327.25
2022-08-14T21:35:22.934Z,98318.38
2022-08-14T21:37:52.606Z,98313.56
2022-08-14T21:40:42.186Z,98322.78
2022-08-14T21:43:18.608Z,98323.97
2022-08-14T21:45:53.472Z,98321.56
2022-08-14T21:48:26.341Z,98321.13
2022-08-14T21:51:54.392Z,98312.66
2022-08-14T21:53:59.401Z,98321.50
2022-08-14T21:56:38.301Z,98310.22
2022-08-14T21:59:11.695Z,98311.00
2022-08-14T22:02:00.676Z,98304.16
2022-08-14T22:04:39.970Z,98303.72
2022-08-14T22:07:16.955Z,98307.34
2022-08-14T22:09:54.838Z,98307.72
2022-08-14T22:12:57.803Z,98301.69
2022-08-14T22:15:17.133Z,98303.25
2022-08-14T22:17:50.960Z,98302.47
2022-08-14T22:20:28.132Z,98304.47
2022-08-14T22:23:03.142Z,98299.63
2022-08-14T22:25:33.108Z,98303.66
2022-08-14T22:28:05.808Z,98301.22
2022-08-14T22:30:35.379Z,98300.00
2022-08-14T22:33:04.754Z,98306.03
2022-08-14T22:35:34.774Z,98294.72
2022-08-14T22:38:37.781Z,98292.31
2022-08-14T22:41:17.973Z,98299.16
2022-08-14T22:43:45.564Z,98293.09
2022-08-14T22:46:20.251Z,98295.50
2022-08-14T22:48:51.115Z,98287.44
2022-08-14T22:51:23.739Z,98291.00
2022-08-14T22:53:56.883Z,98297.44
2022-08-14T22:56:30.454Z,98294.16
2022-08-14T22:59:01.393Z,98286.53
2022-08-14T23:01:46.149Z,98289.31
2022-08-14T23:04:34.110Z,98280.47
2022-08-14T23:07:07.345Z,98279.22
2022-08-14T23:09:38.687Z,98276.41
2022-08-14T23:12:27.898Z,98279.97
2022-08-14T23:14:59.800Z,98277.94
2022-08-14T23:17:39.571Z,98280.75
2022-08-14T23:20:19.173Z,98278.69
2022-08-14T23:22:51.827Z,98271.06
2022-08-14T23:25:57.801Z,98272.63
2022-08-14T23:28:34.763Z,98270.19
2022-08-14T23:31:13.011Z,98276.63
2022-08-14T23:33:51.934Z,98266.97
2022-08-14T23:36:28.548Z,98268.13
2022-08-14T23:39:12.373Z,98264.91
2022-08-14T23:41:53.067Z,98262.50
2022-08-14T23:44:24.515Z,98258.47
2022-08-14T23:46:56.732Z,98258.81
2022-08-14T23:49:41.207Z,98259.22
2022-08-14T23:52:55.804Z,98251.56
2022-08-14T23:55:11.025Z,98241.44
2022-08-14T23:57:43.830Z,98245.47
